KWAL/WAL METAR and TAF weather

Enter ICAO airport designator
Station Type Date Time Source
KWAL METAR 2020/07/04 00:54 UTC NOAA

KWAL 040054Z AUTO 29004KT 10SM CLR 29/19 A2983 RMK AO2 SLP100 T02890189


Station Type Date Time Source
KWAL Decoded METAR 2020/07/04 00:54 UTC NOAA

WALLOPS FLIGHT FAC AIRPORT , VA, United States (KWAL) 37-56N 075-28W 14M
Jul 03, 2020 - 08:54 PM EDT / 2020.07.04 0054 UTC
Wind: from the WNW (290 degrees) at 5 MPH (4 KT):0
Visibility: 10 mile(s):0
Sky conditions: clear
Temperature: 84.0 F (28.9 C)
Dew Point: 66.0 F (18.9 C)
Relative Humidity: 54%
Pressure (altimeter): 29.83 in. Hg (1010 hPa)
ob: KWAL 040054Z AUTO 29004KT 10SM CLR 29/19 A2983 RMK AO2 SLP100 T02890189
cycle: 1

Station Type Date Time Source
KWAL TAF UTC NOAA

Error!

Example: see airport list